Time;durP1;ratioP1;P1;durP2;ratioP2;P2;SDS_P1;SDS_P2;PMS_P1;PMS_P2;Temp;Humidity;BMP_temperature;BMP_pressure;BME280_temperature;BME280_humidity;BME280_pressure;Samples;Min_cycle;Max_cycle;Signal;HPM_P1;HPM_P2
2023/06/08 00:00:51;;;;;;;11.60;6.27;;;13.20;99.90;;;;;;5017393;28;20191;-76
2023/06/08 00:03:38;;;;;;;17.37;7.23;;;13.10;99.90;;;;;;5006500;28;20354;-75
2023/06/08 00:06:23;;;;;;;18.10;7.60;;;13.10;99.90;;;;;;5018899;28;20292;-76
2023/06/08 00:09:08;;;;;;;16.27;7.63;;;13.00;99.90;;;;;;5006520;28;20188;-75
2023/06/08 00:11:55;;;;;;;17.97;7.67;;;13.00;99.90;;;;;;5008333;28;20196;-74
2023/06/08 00:14:39;;;;;;;14.23;7.23;;;13.00;99.90;;;;;;5024228;28;20215;-76
2023/06/08 00:17:23;;;;;;;15.13;7.13;;;12.90;99.90;;;;;;5022078;28;20188;-75
2023/06/08 00:20:09;;;;;;;19.00;8.33;;;12.90;99.90;;;;;;5025034;28;20191;-76
2023/06/08 00:22:53;;;;;;;14.50;7.67;;;12.80;99.90;;;;;;5024268;28;20191;-76
2023/06/08 00:25:37;;;;;;;17.60;7.93;;;12.70;99.90;;;;;;5024415;28;20223;-78
2023/06/08 00:28:23;;;;;;;18.07;8.53;;;12.70;99.90;;;;;;5024348;28;20203;-75
2023/06/08 00:31:08;;;;;;;15.30;7.97;;;12.70;99.90;;;;;;5022321;28;20199;-76
2023/06/08 00:33:52;;;;;;;14.93;7.67;;;12.70;99.90;;;;;;5023317;28;20219;-76
2023/06/08 00:36:37;;;;;;;15.00;8.37;;;12.60;99.90;;;;;;5020057;28;20200;-75
2023/06/08 00:39:21;;;;;;;14.43;8.57;;;12.50;99.90;;;;;;5009424;28;20255;-75
2023/06/08 00:42:06;;;;;;;19.00;8.47;;;12.50;99.90;;;;;;5021182;28;20191;-74
2023/06/08 00:44:50;;;;;;;14.43;8.30;;;12.60;99.90;;;;;;5021536;28;20243;-75
2023/06/08 00:47:35;;;;;;;19.97;9.10;;;12.50;99.90;;;;;;5023927;28;20246;-76
2023/06/08 00:50:20;;;;;;;23.13;9.47;;;12.50;99.90;;;;;;5021660;28;20687;-76
2023/06/08 00:53:04;;;;;;;21.00;9.60;;;12.50;99.90;;;;;;5023530;28;20199;-78
2023/06/08 00:55:51;;;;;;;19.67;10.10;;;12.50;99.90;;;;;;5022935;28;20235;-75
2023/06/08 00:58:37;;;;;;;18.17;10.00;;;12.40;99.90;;;;;;5021940;28;20200;-75
2023/06/08 01:01:24;;;;;;;20.37;9.90;;;12.40;99.90;;;;;;5022693;28;20254;-74
2023/06/08 01:04:11;;;;;;;18.83;10.33;;;12.50;99.90;;;;;;5023310;28;20236;-77
2023/06/08 01:07:14;;;;;;;17.77;10.27;;;12.50;99.90;;;;;;5022616;28;20219;-76
2023/06/08 01:10:08;;;;;;;15.73;10.40;;;12.50;99.90;;;;;;5023466;28;20273;-75
2023/06/08 01:13:03;;;;;;;18.23;10.60;;;12.50;99.90;;;;;;5008280;28;20188;-75
2023/06/08 01:15:55;;;;;;;20.47;10.47;;;12.50;99.90;;;;;;5020945;28;20196;-76
2023/06/08 01:18:40;;;;;;;19.47;11.33;;;12.40;99.90;;;;;;5021323;28;20188;-76
2023/06/08 01:22:12;;;;;;;16.87;10.67;;;12.40;99.90;;;;;;5008836;28;20243;-76
2023/06/08 01:24:59;;;;;;;19.97;10.90;;;12.30;99.90;;;;;;5008035;28;20219;-75
2023/06/08 01:27:48;;;;;;;23.93;10.90;;;12.20;99.90;;;;;;5020487;28;20262;-75
2023/06/08 01:30:32;;;;;;;20.90;10.77;;;12.20;99.90;;;;;;5022033;28;20200;-75
2023/06/08 01:33:19;;;;;;;16.73;10.10;;;12.30;99.90;;;;;;5023481;28;20184;-75
2023/06/08 01:36:10;;;;;;;20.83;10.27;;;12.30;99.90;;;;;;5021726;28;20192;-75
2023/06/08 01:39:09;;;;;;;19.07;10.73;;;12.20;99.90;;;;;;5015266;28;20195;-76
2023/06/08 01:41:58;;;;;;;17.33;10.17;;;12.20;99.90;;;;;;5008411;28;20200;-76
2023/06/08 01:44:45;;;;;;;17.47;10.90;;;12.20;99.90;;;;;;5022554;28;20286;-76
2023/06/08 01:47:47;;;;;;;23.17;12.00;;;12.10;99.90;;;;;;5023030;28;20267;-76
2023/06/08 01:50:33;;;;;;;18.00;10.27;;;12.10;99.90;;;;;;5009720;28;20195;-75
2023/06/08 01:53:18;;;;;;;20.70;10.53;;;12.10;99.90;;;;;;5018093;28;20180;-77
2023/06/08 01:56:03;;;;;;;20.87;10.43;;;12.10;99.90;;;;;;5010651;28;20251;-75
2023/06/08 01:58:47;;;;;;;14.50;9.60;;;12.10;99.90;;;;;;5005667;28;20218;-75
2023/06/08 02:01:31;;;;;;;21.57;10.43;;;12.10;99.90;;;;;;5008620;28;20238;-75
2023/06/08 02:04:16;;;;;;;17.93;10.27;;;12.00;99.90;;;;;;5022485;28;20231;-76
2023/06/08 02:07:00;;;;;;;17.97;10.20;;;12.00;99.90;;;;;;5020950;28;20259;-76
2023/06/08 02:09:44;;;;;;;16.23;9.90;;;12.00;99.90;;;;;;5021421;28;20189;-78
2023/06/08 02:12:28;;;;;;;18.17;10.43;;;12.00;99.90;;;;;;5021765;28;20770;-75
2023/06/08 02:15:12;;;;;;;20.33;11.03;;;11.90;99.90;;;;;;5007916;28;20335;-76
2023/06/08 02:17:59;;;;;;;20.67;10.37;;;11.90;99.90;;;;;;5017694;28;20195;-77
2023/06/08 02:20:43;;;;;;;18.60;10.90;;;11.90;99.90;;;;;;5021016;28;20180;-75
2023/06/08 02:23:27;;;;;;;25.63;11.67;;;11.90;99.90;;;;;;5020108;28;20187;-76
2023/06/08 02:26:11;;;;;;;20.47;10.97;;;11.90;99.90;;;;;;5020169;28;20207;-76
2023/06/08 02:28:56;;;;;;;20.40;11.70;;;11.90;99.90;;;;;;5016156;28;20191;-76
2023/06/08 02:31:40;;;;;;;22.43;12.30;;;11.90;99.90;;;;;;5008759;28;20544;-76
2023/06/08 02:34:24;;;;;;;21.50;11.97;;;11.90;99.90;;;;;;5008080;28;20251;-76
2023/06/08 02:37:08;;;;;;;23.40;11.40;;;11.90;99.90;;;;;;5022045;28;20183;-76
2023/06/08 02:39:53;;;;;;;20.90;10.67;;;11.80;99.90;;;;;;5022640;28;20199;-75
2023/06/08 02:42:37;;;;;;;20.47;11.47;;;11.80;99.90;;;;;;5024119;28;20699;-75
2023/06/08 02:45:21;;;;;;;17.57;11.73;;;11.80;99.90;;;;;;5020106;28;20219;-75
2023/06/08 02:48:06;;;;;;;23.43;12.30;;;11.80;99.90;;;;;;5006501;28;20231;-76
2023/06/08 02:50:50;;;;;;;23.40;12.33;;;11.80;99.90;;;;;;5020500;28;20191;-75
2023/06/08 02:53:35;;;;;;;22.40;11.87;;;11.80;99.90;;;;;;5006576;28;20187;-78
2023/06/08 02:56:21;;;;;;;21.50;12.07;;;11.80;99.90;;;;;;5021086;28;20188;-76
2023/06/08 02:59:06;;;;;;;20.27;12.33;;;11.80;99.90;;;;;;5024103;28;20207;-78
2023/06/08 03:01:53;;;;;;;25.70;12.30;;;11.80;99.90;;;;;;5006424;28;20214;-75
2023/06/08 03:04:38;;;;;;;23.70;13.07;;;11.80;99.90;;;;;;5007671;28;20255;-76
2023/06/08 03:07:25;;;;;;;32.80;15.13;;;11.70;99.90;;;;;;5013578;28;20254;-75
2023/06/08 03:10:09;;;;;;;23.77;14.83;;;11.80;99.90;;;;;;5007847;28;20184;-76
2023/06/08 03:12:53;;;;;;;31.73;15.07;;;11.80;99.90;;;;;;5020926;28;20362;-76
2023/06/08 03:15:38;;;;;;;31.70;17.57;;;11.80;99.90;;;;;;5026039;28;20219;-77
2023/06/08 03:18:24;;;;;;;32.13;16.77;;;11.80;99.90;;;;;;5019953;28;20187;-75
2023/06/08 03:21:12;;;;;;;28.10;16.53;;;11.80;99.90;;;;;;5013809;28;20199;-76
2023/06/08 03:23:56;;;;;;;28.23;16.50;;;11.80;99.90;;;;;;5014531;28;20269;-75
2023/06/08 03:26:40;;;;;;;30.93;18.60;;;11.80;99.90;;;;;;5009445;28;20262;-75
2023/06/08 03:29:25;;;;;;;31.83;18.93;;;11.80;99.90;;;;;;5011196;28;20274;-75
2023/06/08 03:32:10;;;;;;;31.27;18.40;;;11.70;99.90;;;;;;5022525;28;20264;-76
2023/06/08 03:34:54;;;;;;;31.20;19.53;;;11.70;99.90;;;;;;5013403;28;20274;-75
2023/06/08 03:37:38;;;;;;;32.70;19.73;;;11.70;99.90;;;;;;5025578;28;20569;-75
2023/06/08 03:40:22;;;;;;;34.47;20.50;;;11.70;99.90;;;;;;5020494;28;20204;-76
2023/06/08 03:43:06;;;;;;;31.30;19.30;;;11.70;99.90;;;;;;5009025;28;20184;-77
2023/06/08 03:45:50;;;;;;;34.53;20.63;;;11.70;99.90;;;;;;5009110;28;20224;-76
2023/06/08 03:48:34;;;;;;;36.20;20.77;;;11.70;99.90;;;;;;5030638;28;20259;-76
2023/06/08 03:51:23;;;;;;;33.97;21.17;;;11.80;99.90;;;;;;5023095;28;20176;-75
2023/06/08 03:54:08;;;;;;;33.83;21.53;;;11.70;99.90;;;;;;5007535;28;20336;-75
2023/06/08 03:56:52;;;;;;;29.20;19.10;;;11.70;99.90;;;;;;5010399;28;20225;-77
2023/06/08 03:59:37;;;;;;;35.80;20.33;;;11.70;99.90;;;;;;5012108;28;20220;-75
2023/06/08 04:02:21;;;;;;;34.33;19.73;;;11.70;99.90;;;;;;5025418;28;20605;-75
2023/06/08 04:05:06;;;;;;;30.27;18.47;;;11.70;99.90;;;;;;5026348;28;20220;-75
2023/06/08 04:07:53;;;;;;;34.10;21.23;;;11.70;99.90;;;;;;5008234;28;20667;-76
2023/06/08 04:10:37;;;;;;;36.90;20.90;;;11.70;99.90;;;;;;5009361;28;20220;-75
2023/06/08 04:13:21;;;;;;;37.43;21.10;;;11.80;99.90;;;;;;5019067;28;20238;-77
2023/06/08 04:16:08;;;;;;;34.23;20.03;;;11.80;99.90;;;;;;5016249;28;20227;-76
2023/06/08 04:18:53;;;;;;;39.00;20.07;;;11.70;99.90;;;;;;5009578;28;20208;-73
2023/06/08 04:21:38;;;;;;;33.53;20.77;;;11.70;99.90;;;;;;5007453;28;20231;-78
2023/06/08 04:24:23;;;;;;;39.03;20.67;;;11.70;99.90;;;;;;5011702;28;20583;-75
2023/06/08 04:27:07;;;;;;;32.07;20.20;;;11.80;99.90;;;;;;5023574;28;20195;-76
2023/06/08 04:29:52;;;;;;;35.93;21.13;;;11.80;99.90;;;;;;5023661;28;20663;-75
2023/06/08 04:32:36;;;;;;;34.90;20.57;;;11.70;99.90;;;;;;5009073;28;20248;-75
2023/06/08 04:35:21;;;;;;;31.20;20.53;;;11.70;99.90;;;;;;5011015;28;20371;-75
2023/06/08 04:38:12;;;;;;;35.40;20.60;;;11.80;99.90;;;;;;5009843;28;20228;-76
2023/06/08 04:40:56;;;;;;;30.93;19.63;;;11.80;99.90;;;;;;5011578;28;20631;-73
2023/06/08 04:43:40;;;;;;;35.03;19.00;;;11.80;99.90;;;;;;5013911;28;20207;-75
2023/06/08 04:46:25;;;;;;;29.13;19.90;;;11.80;99.90;;;;;;5022272;28;20823;-76
2023/06/08 04:49:10;;;;;;;29.73;18.20;;;11.80;99.90;;;;;;5010316;28;20224;-77
2023/06/08 04:51:55;;;;;;;30.47;19.57;;;11.90;99.90;;;;;;5009631;28;20239;-75
2023/06/08 04:54:39;;;;;;;29.30;17.30;;;11.90;99.90;;;;;;5024287;28;20243;-75
2023/06/08 04:57:23;;;;;;;26.90;15.50;;;11.90;99.90;;;;;;5009278;28;20180;-74
2023/06/08 05:00:09;;;;;;;25.93;15.20;;;11.90;99.90;;;;;;5014585;28;20199;-75
2023/06/08 05:02:53;;;;;;;25.67;12.37;;;11.90;99.90;;;;;;5015972;28;20680;-75
2023/06/08 05:05:37;;;;;;;20.33;11.73;;;11.90;99.90;;;;;;5009384;28;20247;-76
2023/06/08 05:08:22;;;;;;;19.10;10.73;;;12.00;99.90;;;;;;5009830;28;20207;-75
2023/06/08 05:11:06;;;;;;;18.93;12.13;;;12.00;99.90;;;;;;5013311;28;20243;-76
2023/06/08 05:13:50;;;;;;;22.43;11.07;;;12.10;99.90;;;;;;5008833;28;20235;-75
2023/06/08 05:16:35;;;;;;;22.67;11.93;;;12.10;99.90;;;;;;5011354;28;20199;-76
2023/06/08 05:19:19;;;;;;;20.33;11.87;;;12.10;99.90;;;;;;5025565;28;20328;-76
2023/06/08 05:22:04;;;;;;;24.30;14.37;;;12.20;99.90;;;;;;5025487;28;20235;-76
2023/06/08 05:24:47;;;;;;;30.80;16.43;;;12.10;99.90;;;;;;5019692;28;20239;-76
2023/06/08 05:27:32;;;;;;;29.00;16.37;;;12.10;99.90;;;;;;5022523;28;20224;-75
2023/06/08 05:30:16;;;;;;;25.90;16.20;;;12.10;99.90;;;;;;5012221;28;20219;-75
2023/06/08 05:33:00;;;;;;;23.70;13.20;;;12.10;99.90;;;;;;5027297;28;20227;-76
2023/06/08 05:35:44;;;;;;;22.23;11.60;;;12.10;99.90;;;;;;5026259;28;20286;-75
2023/06/08 05:38:28;;;;;;;24.70;10.20;;;12.10;99.90;;;;;;5013395;28;20184;-74
2023/06/08 05:41:12;;;;;;;23.63;10.40;;;12.20;99.90;;;;;;5027106;28;20211;-74
2023/06/08 05:43:56;;;;;;;20.10;11.00;;;12.20;99.90;;;;;;5008107;28;20259;-76
2023/06/08 05:46:41;;;;;;;22.53;11.07;;;12.20;99.90;;;;;;5011700;28;20224;-75
2023/06/08 05:49:25;;;;;;;18.43;10.57;;;12.30;99.90;;;;;;5006561;28;20200;-74
2023/06/08 05:52:09;;;;;;;21.37;10.80;;;12.30;99.90;;;;;;5022701;28;20219;-74
2023/06/08 05:54:53;;;;;;;20.93;9.70;;;12.40;99.90;;;;;;5023848;28;20211;-74
2023/06/08 05:57:37;;;;;;;18.53;10.47;;;12.40;99.90;;;;;;5011141;28;20195;-68
2023/06/08 06:00:21;;;;;;;16.30;9.93;;;12.30;99.90;;;;;;5010679;28;20200;-71
2023/06/08 06:03:05;;;;;;;18.97;10.00;;;12.30;99.90;;;;;;5005944;28;20231;-70
2023/06/08 06:05:49;;;;;;;22.93;10.70;;;12.40;99.90;;;;;;5010792;28;20211;-71
2023/06/08 06:08:34;;;;;;;14.67;9.67;;;12.40;99.90;;;;;;5011629;28;20569;-73
2023/06/08 06:11:20;;;;;;;15.13;9.10;;;12.50;99.90;;;;;;5024740;28;20207;-70
2023/06/08 06:14:04;;;;;;;15.53;9.33;;;12.50;99.90;;;;;;5025604;28;20360;-70
2023/06/08 06:16:49;;;;;;;19.00;9.53;;;12.60;99.90;;;;;;5005816;28;20200;-73
2023/06/08 06:19:36;;;;;;;20.23;9.50;;;12.70;99.90;;;;;;5025165;28;20199;-70
2023/06/08 06:22:21;;;;;;;15.90;9.70;;;12.80;99.90;;;;;;5022334;28;20251;-70
2023/06/08 06:25:05;;;;;;;21.70;9.37;;;12.80;99.90;;;;;;5024313;28;20347;-68
2023/06/08 06:27:50;;;;;;;18.00;9.33;;;12.80;99.90;;;;;;5025165;28;20184;-73
2023/06/08 06:30:35;;;;;;;18.07;9.17;;;12.80;99.90;;;;;;5019412;28;20230;-70
2023/06/08 06:33:19;;;;;;;17.27;8.27;;;12.90;99.90;;;;;;5022555;28;20184;-70
2023/06/08 06:36:03;;;;;;;14.00;8.13;;;13.00;99.90;;;;;;5011300;28;20203;-70
2023/06/08 06:38:49;;;;;;;18.97;8.10;;;13.10;99.90;;;;;;5010889;28;20676;-71
2023/06/08 06:41:33;;;;;;;16.20;8.73;;;13.10;99.90;;;;;;5003387;28;20183;-70
2023/06/08 06:44:18;;;;;;;14.83;7.93;;;13.10;99.90;;;;;;5004717;28;20234;-71
2023/06/08 06:47:02;;;;;;;15.80;8.90;;;13.20;99.90;;;;;;5021824;28;20300;-70
2023/06/08 06:49:46;;;;;;;17.93;8.53;;;13.20;99.90;;;;;;5024167;28;20273;-70
2023/06/08 06:52:30;;;;;;;16.90;8.57;;;13.30;99.90;;;;;;5009673;28;20767;-71
2023/06/08 06:55:14;;;;;;;13.90;7.73;;;13.30;99.90;;;;;;4999359;28;20227;-73
2023/06/08 06:58:00;;;;;;;12.83;7.00;;;13.40;99.90;;;;;;5022436;28;20197;-72
2023/06/08 07:00:45;;;;;;;11.70;7.57;;;13.50;99.90;;;;;;5005235;28;20200;-72
2023/06/08 07:03:29;;;;;;;15.33;6.90;;;13.50;99.90;;;;;;5009926;28;20239;-72
2023/06/08 07:06:13;;;;;;;14.17;7.33;;;13.60;99.90;;;;;;5007795;28;20203;-72
2023/06/08 07:08:58;;;;;;;17.67;8.30;;;13.70;99.90;;;;;;5004571;28;20212;-73
2023/06/08 07:11:42;;;;;;;16.60;7.63;;;13.80;99.90;;;;;;5018104;28;20184;-75
2023/06/08 07:14:26;;;;;;;20.43;7.73;;;13.90;99.90;;;;;;5008170;28;20211;-72
2023/06/08 07:17:11;;;;;;;15.53;7.80;;;13.90;99.90;;;;;;5019764;28;20192;-72
2023/06/08 07:19:57;;;;;;;17.60;7.50;;;13.90;99.90;;;;;;5004282;28;20207;-73
2023/06/08 07:22:41;;;;;;;19.70;8.10;;;13.60;99.90;;;;;;5022513;28;20183;-72
2023/06/08 07:25:25;;;;;;;15.77;7.87;;;14.20;99.90;;;;;;5021990;28;20304;-72
2023/06/08 07:28:10;;;;;;;15.67;7.60;;;14.20;99.90;;;;;;5008182;28;20243;-72
2023/06/08 07:30:54;;;;;;;15.50;7.50;;;14.30;99.90;;;;;;5012590;28;20192;-72
2023/06/08 07:33:38;;;;;;;19.60;6.97;;;14.30;99.90;;;;;;5021641;28;20272;-73
2023/06/08 07:36:22;;;;;;;14.83;7.97;;;14.50;99.90;;;;;;5017211;28;20255;-73
2023/06/08 07:39:06;;;;;;;16.47;8.30;;;14.60;99.90;;;;;;5001221;28;20191;-74
2023/06/08 07:41:50;;;;;;;16.00;7.90;;;14.80;99.90;;;;;;5021191;28;20599;-73
2023/06/08 07:44:35;;;;;;;17.33;7.27;;;14.90;99.90;;;;;;5021852;28;20298;-74
2023/06/08 07:47:19;;;;;;;11.77;7.77;;;14.90;99.90;;;;;;5003921;28;20259;-72
2023/06/08 07:50:03;;;;;;;16.27;7.13;;;15.00;99.90;;;;;;5022308;28;20184;-73
2023/06/08 07:52:47;;;;;;;15.20;8.13;;;15.00;99.90;;;;;;5018923;28;20192;-73
2023/06/08 07:55:31;;;;;;;16.03;7.87;;;15.10;99.90;;;;;;5011125;28;20215;-73
2023/06/08 07:58:15;;;;;;;19.77;7.07;;;15.10;99.90;;;;;;5009176;28;20659;-73
2023/06/08 08:01:00;;;;;;;21.00;7.37;;;15.30;99.90;;;;;;5022039;28;20235;-74
2023/06/08 08:03:44;;;;;;;19.10;7.37;;;15.30;99.90;;;;;;5015718;28;20262;-73
2023/06/08 08:06:29;;;;;;;26.47;8.60;;;15.50;99.90;;;;;;5005802;28;20255;-73
2023/06/08 08:09:13;;;;;;;17.10;7.90;;;15.60;99.90;;;;;;5009103;28;20622;-74
2023/06/08 08:11:57;;;;;;;15.83;7.63;;;15.80;99.90;;;;;;5006805;28;20195;-73
2023/06/08 08:14:43;;;;;;;19.40;7.17;;;15.80;99.90;;;;;;5016439;28;20216;-73
2023/06/08 08:17:29;;;;;;;13.43;6.77;;;;;;;;;;5025108;28;20187;-73
2023/06/08 08:20:14;;;;;;;14.60;7.00;;;;;;;;;;5005784;28;20231;-73
2023/06/08 08:23:00;;;;;;;13.97;7.40;;;;;;;;;;5008512;28;20200;-73
2023/06/08 08:25:45;;;;;;;12.03;6.93;;;16.20;99.90;;;;;;5008108;28;20220;-73
2023/06/08 08:28:31;;;;;;;19.13;7.20;;;;;;;;;;5019715;28;20216;-74
2023/06/08 08:31:18;;;;;;;15.80;7.50;;;;;;;;;;5009721;28;20331;-73
2023/06/08 08:34:05;;;;;;;14.70;7.37;;;;;;;;;;5006473;28;20216;-74
2023/06/08 08:36:51;;;;;;;13.13;7.17;;;;;;;;;;5011034;28;20199;-74
2023/06/08 08:39:36;;;;;;;15.87;7.73;;;16.50;99.90;;;;;;5009996;28;20192;-74
2023/06/08 08:42:27;;;;;;;17.60;7.57;;;16.70;99.90;;;;;;5010222;28;20199;-74
2023/06/08 08:45:13;;;;;;;16.23;7.63;;;16.80;99.90;;;;;;5010996;28;20212;-74
2023/06/08 08:48:01;;;;;;;14.53;8.10;;;;;;;;;;5022836;28;20647;-74
2023/06/08 08:50:51;;;;;;;15.83;8.37;;;;;;;;;;5011332;28;20719;-74
2023/06/08 08:53:40;;;;;;;16.10;7.57;;;;;;;;;;5020857;28;20339;-74
2023/06/08 08:56:30;;;;;;;14.73;7.23;;;;;;;;;;5012881;28;20196;-74
2023/06/08 08:59:18;;;;;;;17.77;8.03;;;;;;;;;;5024431;28;20667;-75
2023/06/08 09:02:04;;;;;;;17.07;7.20;;;;;;;;;;5012553;28;20215;-74
2023/06/08 09:04:49;;;;;;;18.73;7.17;;;17.40;99.90;;;;;;5008228;28;20232;-75
2023/06/08 09:07:35;;;;;;;16.53;7.63;;;17.50;99.90;;;;;;5011899;28;20358;-75
2023/06/08 09:10:25;;;;;;;16.43;8.27;;;17.60;99.90;;;;;;5006095;28;20244;-74
2023/06/08 09:13:20;;;;;;;13.53;7.67;;;17.60;99.90;;;;;;5010594;28;20599;-75
2023/06/08 09:16:14;;;;;;;14.63;7.43;;;17.80;99.90;;;;;;5020985;28;20196;-76
2023/06/08 09:19:06;;;;;;;15.30;7.20;;;17.90;99.90;;;;;;5009487;28;20188;-74
2023/06/08 09:21:50;;;;;;;20.05;7.55;;;18.10;99.90;;;;;;5022481;28;20199;-74
2023/06/08 09:24:50;;;;;;;15.32;6.85;;;18.30;99.90;;;;;;5006407;28;20219;-75
2023/06/08 09:27:35;;;;;;;12.88;7.45;;;18.40;99.90;;;;;;5009053;28;20584;-74
2023/06/08 09:30:23;;;;;;;16.48;7.13;;;18.50;99.90;;;;;;5004799;28;20196;-75
2023/06/08 09:33:20;;;;;;;16.13;8.02;;;18.60;99.90;;;;;;5007137;28;20184;-74
2023/06/08 09:36:15;;;;;;;14.77;7.70;;;18.60;99.90;;;;;;5021659;28;20196;-74
2023/06/08 09:39:03;;;;;;;18.35;7.88;;;;;;;;;;5030405;28;20215;-79
2023/06/08 09:41:57;;;;;;;15.15;8.27;;;;;;;;;;5024699;28;20188;-75
2023/06/08 09:44:42;;;;;;;13.80;7.78;;;;;;;;;;5019428;28;20220;-78
2023/06/08 09:47:27;;;;;;;15.77;7.97;;;;;;;;;;5005638;28;20215;-75
2023/06/08 09:50:11;;;;;;;15.52;7.65;;;;;;;;;;5019127;28;20196;-75
2023/06/08 09:52:58;;;;;;;15.63;7.50;;;;;;;;;;5018469;28;20703;-75
2023/06/08 09:55:43;;;;;;;14.68;7.80;;;;;;;;;;5023590;28;20208;-75
2023/06/08 09:58:30;;;;;;;15.35;7.47;;;;;;;;;;5007424;28;20227;-76
2023/06/08 10:01:16;;;;;;;18.73;8.20;;;;;;;;;;5024112;28;20752;-75
2023/06/08 10:04:02;;;;;;;16.10;7.68;;;;;;;;;;5009844;28;20219;-75
2023/06/08 10:06:47;;;;;;;14.95;7.45;;;;;;;;;;5016521;28;20259;-75
2023/06/08 10:09:35;;;;;;;17.13;7.18;;;;;;;;;;5024134;28;20188;-75
2023/06/08 10:12:21;;;;;;;13.10;7.57;;;;;;;;;;5011169;28;20184;-74
2023/06/08 10:15:07;;;;;;;16.50;7.32;;;;;;;;;;5020837;28;20211;-74
2023/06/08 10:17:52;;;;;;;16.90;7.32;;;;;;;;;;5008693;28;20192;-74
2023/06/08 10:20:39;;;;;;;18.25;7.88;;;;;;;;;;5006391;28;20227;-74
2023/06/08 10:23:25;;;;;;;16.38;6.70;;;;;;;;;;5023161;28;20187;-76
2023/06/08 10:26:12;;;;;;;15.75;6.88;;;;;;;;;;5013274;28;20207;-77
2023/06/08 10:29:11;;;;;;;16.45;6.85;;;;;;;;;;5011925;28;20251;-74
2023/06/08 10:31:56;;;;;;;13.85;7.07;;;20.80;99.90;;;;;;5021978;28;20184;-75
2023/06/08 10:34:43;;;;;;;13.80;6.68;;;;;;;;;;5007277;28;20303;-77
2023/06/08 10:37:33;;;;;;;15.43;6.78;;;;;;;;;;5025836;28;20184;-74
2023/06/08 10:40:20;;;;;;;12.50;7.13;;;;;;;;;;5009752;28;20188;-74
2023/06/08 10:43:09;;;;;;;16.27;6.82;;;;;;;;;;5009292;28;20188;-78
2023/06/08 10:45:55;;;;;;;9.93;6.20;;;;;;;;;;5004007;28;20675;-74
2023/06/08 10:48:39;;;;;;;16.90;7.43;;;20.80;99.90;;;;;;5006203;28;20347;-78
2023/06/08 10:51:23;;;;;;;9.75;6.65;;;20.80;99.90;;;;;;5009294;28;20719;-74
2023/06/08 10:54:09;;;;;;;13.93;7.10;;;20.80;99.90;;;;;;5006281;28;20235;-75
2023/06/08 10:56:57;;;;;;;10.50;6.00;;;;;;;;;;5020218;28;20199;-74
2023/06/08 10:59:42;;;;;;;10.68;5.45;;;;;;;;;;5010659;28;20671;-75
2023/06/08 11:02:30;;;;;;;13.15;5.90;;;;;;;;;;5009591;28;20254;-75
2023/06/08 11:05:17;;;;;;;11.65;6.15;;;;;;;;;;5009140;28;20645;-74
2023/06/08 11:08:02;;;;;;;11.45;5.65;;;;;;;;;;5009369;28;20336;-75
2023/06/08 11:10:51;;;;;;;13.10;5.80;;;;;;;;;;5010092;28;20207;-75
2023/06/08 11:13:36;;;;;;;13.00;6.10;;;21.60;99.90;;;;;;5008408;28;20188;-74
2023/06/08 11:16:20;;;;;;;15.93;6.10;;;;;;;;;;5009784;28;20199;-75
2023/06/08 11:19:09;;;;;;;9.20;6.40;;;;;;;;;;5006777;28;20199;-74
2023/06/08 11:21:53;;;;;;;10.07;6.05;;;21.70;99.90;;;;;;5025581;28;20192;-74
2023/06/08 11:24:41;;;;;;;10.90;5.72;;;;;;;;;;5005752;28;20300;-74
2023/06/08 11:27:26;;;;;;;11.57;6.03;;;21.70;99.90;;;;;;5023092;28;20207;-77
2023/06/08 11:30:17;;;;;;;9.48;5.82;;;21.80;99.90;;;;;;5008678;28;20200;-74
2023/06/08 11:33:07;;;;;;;8.90;5.60;;;21.80;99.90;;;;;;5008888;28;20246;-75
2023/06/08 11:35:53;;;;;;;11.70;6.32;;;22.00;99.90;;;;;;5004747;28;20593;-74
2023/06/08 11:38:37;;;;;;;7.93;5.03;;;22.00;99.90;;;;;;5009018;28;20282;-75
2023/06/08 11:41:22;;;;;;;13.57;6.55;;;22.00;99.90;;;;;;5005851;28;20266;-75
2023/06/08 11:44:09;;;;;;;12.00;5.85;;;;;;;;;;5011516;28;20222;-75
2023/06/08 11:46:55;;;;;;;10.73;5.82;;;;;;;;;;5004975;28;20206;-75
2023/06/08 11:49:52;;;;;;;10.90;5.10;;;;;;;;;;5016058;28;20192;-75
2023/06/08 11:52:44;;;;;;;12.80;5.53;;;;;;;;;;5007454;28;20184;-74
2023/06/08 11:55:31;;;;;;;10.95;5.88;;;;;;;;;;5017772;28;20243;-75
2023/06/08 11:58:15;;;;;;;15.50;5.78;;;;;;;;;;5015885;28;20203;-74
2023/06/08 12:01:04;;;;;;;9.63;4.75;;;22.70;99.90;;;;;;5005021;28;20235;-74
2023/06/08 12:03:49;;;;;;;10.75;5.47;;;22.70;99.90;;;;;;5009017;28;20223;-75
2023/06/08 12:06:33;;;;;;;13.65;5.70;;;22.80;99.90;;;;;;5007304;28;20276;-75
2023/06/08 12:09:17;;;;;;;10.43;5.63;;;22.80;99.90;;;;;;5010911;28;20716;-75
2023/06/08 12:12:09;;;;;;;10.07;5.65;;;22.90;99.90;;;;;;5024821;28;20216;-75
2023/06/08 12:14:55;;;;;;;11.07;4.97;;;22.90;99.90;;;;;;5012380;28;20719;-75
2023/06/08 12:17:39;;;;;;;12.48;5.10;;;22.90;99.90;;;;;;5013390;28;20188;-74
2023/06/08 12:20:29;;;;;;;12.00;4.95;;;23.10;99.90;;;;;;5007727;28;20184;-74
2023/06/08 12:23:14;;;;;;;9.43;4.90;;;23.20;99.90;;;;;;5009250;28;20247;-77
2023/06/08 12:25:58;;;;;;;14.07;5.43;;;23.20;99.90;;;;;;5008697;28;20192;-75
2023/06/08 12:28:43;;;;;;;8.48;4.90;;;23.20;99.90;;;;;;5006913;28;20219;-75
2023/06/08 12:31:27;;;;;;;14.60;5.75;;;23.30;99.90;;;;;;5012789;28;20192;-76
2023/06/08 12:34:12;;;;;;;9.80;4.80;;;23.30;99.90;;;;;;5024423;28;20244;-75
2023/06/08 12:36:56;;;;;;;10.63;4.95;;;23.40;99.90;;;;;;5025112;28;20196;-74
2023/06/08 12:39:40;;;;;;;12.00;5.32;;;23.60;99.90;;;;;;5012054;28;20264;-74
2023/06/08 12:42:24;;;;;;;7.93;5.50;;;23.60;99.90;;;;;;5011335;28;20187;-72
2023/06/08 12:45:08;;;;;;;14.02;5.18;;;23.60;99.90;;;;;;5025412;28;20632;-75
2023/06/08 12:47:53;;;;;;;9.57;4.88;;;23.60;99.90;;;;;;5009794;28;20207;-75
2023/06/08 12:50:38;;;;;;;11.10;5.25;;;23.60;99.90;;;;;;5022437;28;20200;-72
2023/06/08 12:53:22;;;;;;;9.55;5.85;;;23.60;99.90;;;;;;5010593;28;20231;-73
2023/06/08 12:56:07;;;;;;;9.90;5.10;;;23.70;99.90;;;;;;5008412;28;20188;-71
2023/06/08 12:58:51;;;;;;;11.70;5.03;;;23.60;99.90;;;;;;5010688;28;20235;-72
2023/06/08 13:01:36;;;;;;;9.38;4.88;;;23.70;99.90;;;;;;5009317;28;20233;-71
2023/06/08 13:04:20;;;;;;;9.10;5.15;;;23.80;99.90;;;;;;5010958;28;20290;-73
2023/06/08 13:07:04;;;;;;;8.63;4.70;;;23.80;99.90;;;;;;5006760;28;20216;-71
2023/06/08 13:09:49;;;;;;;8.85;4.95;;;23.80;99.90;;;;;;5010644;28;20188;-72
2023/06/08 13:12:33;;;;;;;8.70;5.00;;;23.80;99.90;;;;;;5010658;28;20262;-71
2023/06/08 13:15:18;;;;;;;12.63;5.53;;;23.90;99.90;;;;;;5010795;28;20207;-71
2023/06/08 13:18:06;;;;;;;9.77;5.15;;;23.90;99.90;;;;;;5025200;28;20196;-72
2023/06/08 13:20:50;;;;;;;14.35;5.38;;;24.10;99.90;;;;;;5008812;28;20196;-72
2023/06/08 13:23:34;;;;;;;8.55;4.75;;;24.10;99.90;;;;;;5008130;28;20242;-72
2023/06/08 13:26:18;;;;;;;9.55;4.88;;;24.20;99.90;;;;;;5025136;28;20255;-70
2023/06/08 13:29:02;;;;;;;8.00;5.10;;;24.10;99.90;;;;;;5015397;28;20192;-72
2023/06/08 13:31:47;;;;;;;8.52;4.50;;;24.10;99.90;;;;;;5009742;28;20188;-74
2023/06/08 13:34:31;;;;;;;8.05;4.47;;;24.20;99.90;;;;;;5018681;28;20278;-73
2023/06/08 13:37:16;;;;;;;10.38;4.88;;;24.40;99.90;;;;;;5007819;28;20200;-74
2023/06/08 13:40:00;;;;;;;10.30;4.90;;;24.50;99.90;;;;;;5023474;28;20255;-74
2023/06/08 13:42:44;;;;;;;10.20;4.93;;;24.50;99.90;;;;;;5008253;28;20188;-74
2023/06/08 13:45:34;;;;;;;11.98;5.18;;;24.50;99.90;;;;;;5008002;28;20215;-76
2023/06/08 13:48:18;;;;;;;11.93;5.13;;;24.40;99.90;;;;;;5009828;28;20327;-75
2023/06/08 13:51:03;;;;;;;10.18;4.50;;;24.50;99.90;;;;;;5011997;28;20197;-73
2023/06/08 13:53:49;;;;;;;10.20;5.10;;;;;;;;;;5023915;28;20704;-74
2023/06/08 13:56:35;;;;;;;9.50;5.30;;;;;;;;;;5016232;28;20599;-75
2023/06/08 13:59:19;;;;;;;10.23;5.10;;;24.70;99.90;;;;;;5003443;28;20211;-75
2023/06/08 14:02:03;;;;;;;9.98;4.55;;;24.60;99.90;;;;;;5024128;28;20287;-74
2023/06/08 14:04:48;;;;;;;8.80;4.70;;;24.70;99.90;;;;;;5015472;28;20219;-74
2023/06/08 14:07:32;;;;;;;9.13;5.18;;;24.60;99.90;;;;;;5020827;28;20265;-76
2023/06/08 14:10:16;;;;;;;12.25;4.90;;;24.70;99.90;;;;;;5011490;28;20276;-73
2023/06/08 14:13:01;;;;;;;8.27;4.32;;;24.60;99.90;;;;;;5008588;28;20184;-75
2023/06/08 14:15:45;;;;;;;10.88;4.53;;;24.80;99.90;;;;;;5012427;28;20212;-75
2023/06/08 14:18:30;;;;;;;10.25;4.70;;;24.90;99.90;;;;;;5008337;28;20188;-75
2023/06/08 14:21:14;;;;;;;11.82;5.03;;;24.90;99.90;;;;;;5011596;28;20219;-74
2023/06/08 14:23:58;;;;;;;8.32;4.50;;;25.00;99.90;;;;;;5024587;28;20262;-75
2023/06/08 14:26:43;;;;;;;10.32;4.10;;;25.00;99.90;;;;;;5008227;28;20231;-75